Monday, January 22, 2018, 9:05 AM EST
Back to Local

KIAG, Niagara Falls International Airport

Location: Niagara Falls, NY, United States Lat: 43.117
Local Time: 9:05 AM EST (14:05 GMT) Lon: -78.933
Time Zone: US/Eastern Elev: 583 ft

Show me the last for .
Show Decoded

2018-01-22 08:53 METAR KIAG 221353Z 10007KT 1/2SM R28R/2000V2600FT -RA FG VV003 04/02 A3001 RMK
                 AO2 RAB46 SLP174 P0000 T00440022 =
2018-01-22 07:53 METAR KIAG 221253Z 09006KT 3/4SM R28R/3000V4000FT BR VV005 04/02 A3002 RMK AO2
                 RAB00E25 SLP178 P0001 T00390017 =
2018-01-22 07:45 METAR KIAG 221245Z 10007KT 3/4SM R28R/3000V3500FT BR BKN006 OVC012 04/02 A3002
                 RMK AO2 RAB00E25 P0001 T00390017 =
2018-01-22 07:32 METAR KIAG 221232Z 10007KT 1/2SM R28R/2800V3500FT FG VV006 04/02 A3002 RMK AO2
                 RAB00E25 P0001 T00390017 =
2018-01-22 07:09 METAR KIAG 221209Z 09005KT 1/2SM R28R/2000V2800FT -RA FG VV003 04/02 A3004 RMK
                 AO2 RAB00 P0000 T00390022 =
2018-01-22 06:53 METAR KIAG 221153Z COR 12004KT 1/2SM FG R28R/2800V3000FT VV003 04/02 A3005 RMK
                 AO2 SLP188 60002 70003 T00390017 10039 20033 53004 =
2018-01-22 06:15 METAR KIAG 221115Z AUTO 07007KT 1/2SM R28R/2200V2600FT VV003 04/02 A3003 RMK AO2
                 T00390017 =
2018-01-22 06:05 METAR KIAG 221105Z AUTO 08006KT 1/4SM R28R/2000V2200FT VV003 04/02 A3003 RMK AO2
                 T00390017 =
2018-01-22 05:53 METAR KIAG 221053Z AUTO 07004KT 1/4SM R28R/2000V2400FT VV003 04/02 A3004 RMK AO2
                 RAB0958E26 SLP184 P0001 T00390017 =
2018-01-22 05:46 METAR KIAG 221046Z AUTO 08003KT 1/4SM R28R/2000V2400FT VV003 04/02 A3004 RMK AO2
                 RAB0958E26 P0001 T00390017 =
2018-01-22 05:31 METAR KIAG 221031Z AUTO 05003KT 1/2SM R28R/2200V2600FT VV003 04/02 A3004 RMK AO2
                 RAB0958E26 P0001 T00390017 =
2018-01-22 05:23 METAR KIAG 221023Z AUTO 07004KT 1/2SM R28R/2000V2200FT -RA VV003 03/02 A3004 RMK
                 AO2 RAB0958 P0001 T00330017 =
2018-01-22 05:01 METAR KIAG 221001Z AUTO 10004KT 1/4SM R28R/1800V2000FT -RA VV003 04/02 A3003 RMK
                 AO2 RAB0958 P0000 T00390022 =
2018-01-22 04:53 METAR KIAG 220953Z AUTO 11003KT 1/4SM R28R/2000V2400FT VV003 04/02 A3004 RMK AO2
                 SLP184 T00390022 =
2018-01-22 04:31 METAR KIAG 220931Z AUTO 09003KT 1/2SM R28R/2400FT VV003 04/02 A3003 RMK AO2
                 T00390017 =
2018-01-22 04:22 METAR KIAG 220922Z AUTO 07006KT 1/4SM R28R/2200V2400FT VV003 04/02 A3003 RMK AO2
                 T00390017 =
2018-01-22 03:53 METAR KIAG 220853Z AUTO 07004KT 1/4SM R28R/1800FT VV003 03/02 A3004 RMK AO2
                 SLP183 60001 T00330017 56004 =
2018-01-22 02:53 METAR KIAG 220753Z AUTO 08004KT 1/4SM R28R/1600V1800FT VV003 03/01 A3004 RMK AO2
                 RAE04 SLP184 P0001 T00330011 =
2018-01-22 02:24 METAR KIAG 220724Z AUTO 00000KT 1/4SM R28R/1800V2200FT VV003 03/02 A3005 RMK AO2
                 RAE04 P0001 T00330017 =
2018-01-22 02:09 METAR KIAG 220709Z AUTO 00000KT 1/4SM R28R/2000V2400FT VV003 03/02 A3005 RMK AO2
                 RAE04 P0000 T00330017 =
2018-01-22 01:53 METAR KIAG 220653Z AUTO 00000KT 1/2SM R28R/2600V2800FT -RA VV003 03/02 A3005 RMK
                 AO2 RAB50 SLP185 P0000 T00330017 =
2018-01-22 01:46 METAR KIAG 220646Z AUTO 00000KT 1/2SM R28R/2600V3000FT VV004 03/02 A3004 RMK AO2
                 T00330017 =
2018-01-22 01:33 METAR KIAG 220633Z AUTO 00000KT 1/2SM R28R/2600V4000FT VV005 04/02 A3004 RMK AO2
                 T00390017 =
2018-01-22 01:18 METAR KIAG 220618Z AUTO 13003KT 1/2SM R28R/3000V3500FT VV004 03/01 A3004 RMK AO2
                 T00330011 =
2018-01-22 00:58 METAR KIAG 220558Z AUTO 00000KT 1/2SM R28R/3000V6000FT BKN003 OVC016 03/02 A3005
                 RMK AO2 T00330017 =
2018-01-22 00:53 METAR KIAG 220553Z AUTO 00000KT 3/4SM R28R/3500VP6000FT BKN004 BKN014 OVC019
                 03/02 A3005 RMK AO2 RAE0457 SLP189 P0000 60001 T00330017 10039 20028 58003 =
2018-01-22 00:47 METAR KIAG 220547Z AUTO 13003KT 3/4SM R28R/5500VP6000FT BKN004 BKN008 OVC019
                 03/02 A3005 RMK AO2 RAE0457 P0000 =
2018-01-22 00:41 METAR KIAG 220541Z AUTO 13003KT 3/4SM R28R/4500VP6000FT SCT004 OVC016 03/01
                 A3005 RMK AO2 RAE0457 P0000 T00330011 =
2018-01-22 00:22 METAR KIAG 220522Z AUTO 00000KT 3/4SM R28R/5000VP6000FT BKN010 OVC018 03/01
                 A3005 RMK AO2 RAE0457 P0000 T00330011 =
2018-01-21 23:53 METAR KIAG 220453Z AUTO 00000KT 1SM R28R/6000VP6000FT -RA BKN010 OVC021 03/02
                 A3006 RMK AO2 SLP191 P0001 T00330017 400561017 =
2018-01-21 23:40 METAR KIAG 220440Z AUTO 00000KT 1SM R28R/5000VP6000FT -RA FEW011 OVC021 03/02
                 A3006 RMK AO2 P0001 T00330017 =
2018-01-21 23:29 METAR KIAG 220429Z AUTO 00000KT 1 1/4SM -RA OVC020 03/02 A3006 RMK AO2 P0001
                 T00330017 =
2018-01-21 23:16 METAR KIAG 220416Z AUTO 00000KT 1SM R28R/P6000FT -RA OVC020 03/02 A3006 RMK AO2
                 P0001 T00330017 =
2018-01-21 23:06 METAR KIAG 220406Z 00000KT 1 1/2SM -RA OVC022 03/02 A3006 RMK AO2 P0001
                 T00330017 =
2018-01-21 22:53 METAR KIAG 220353Z 00000KT 1 1/4SM -RA OVC022 03/02 A3006 RMK AO2 RAB39 SLP191
                 P0000 T00330017 =
2018-01-21 22:19 METAR KIAG 220319Z 00000KT 1 1/4SM BKN025 OVC034 03/02 A3006 RMK AO2 T00330017 =
2018-01-21 22:00 METAR KIAG 220300Z 00000KT 1 1/2SM FEW017 OVC025 03/02 A3006 RMK AO2 T00330017 =
2018-01-21 21:53 METAR KIAG 220253Z 00000KT 1SM R28R/P6000FT OVC014 03/02 A3006 RMK AO2 SLP192
                 T00330017 58003 =
2018-01-21 20:53 METAR KIAG 220153Z 00000KT 1SM R28R/P6000FT OVC014 03/02 A3007 RMK AO2 SLP196
                 T00330017 =
2018-01-21 19:53 METAR KIAG 220053Z 00000KT 1SM R28R/4000VP6000FT OVC014 03/02 A3007 RMK AO2
                 SLP196 T00330022 =
2018-01-21 18:58 METAR KIAG 212358Z 08003KT 3/4SM R28R/3500VP6000FT BR OVC016 03/01 A3007 RMK AO2
                 T00330011 =
2018-01-21 18:53 METAR KIAG 212353Z 08003KT 1 3/4SM R28R/4000VP6000FT BR OVC014 03/01 A3007 RMK
                 AO2 SLP197 60000 T00330011 10056 20033 50005 =
2018-01-21 17:53 METAR KIAG 212253Z 00000KT 1 3/4SM BR OVC014 03/01 A3007 RMK AO2 SLP198
                 T00330011 =
2018-01-21 16:53 METAR KIAG 212153Z 07003KT 2 1/2SM HZ OVC014 04/01 A3006 RMK AO2 SLP192
                 T00390011 =
2018-01-21 16:50 METAR KIAG 212150Z 00000KT 2SM HZ FEW009 OVC014 04/01 A3006 RMK AO2 =
2018-01-21 16:30 METAR KIAG 212130Z 00000KT 1 1/4SM HZ SCT009 OVC015 04/01 A3006 RMK AO2
                 T00390011 =
2018-01-21 15:53 METAR KIAG 212053Z 00000KT 2 1/2SM HZ SCT009 OVC017 05/02 A3005 RMK AO2 RAB27E37
                 SLP190 P0000 60000 T00500017 55006 =
2018-01-21 14:53 METAR KIAG 211953Z 00000KT 3SM HZ OVC006 05/02 A3005 RMK AO2 SLP188 T00500022 =
2018-01-21 14:09 METAR KIAG 211909Z 22006KT 4SM HZ OVC006 04/02 A3005 RMK AO2 T00440017 =
2018-01-21 13:53 METAR KIAG 211853Z 23007KT 5SM HZ OVC007 05/02 A3006 RMK AO2 SLP190 T00500017 =
2018-01-21 13:26 METAR KIAG 211826Z 20004KT 2 1/2SM BR OVC005 05/03 A3005 RMK AO2 T00500028 =
2018-01-21 13:19 METAR KIAG 211819Z 15003KT 3SM HZ OVC005 06/03 A3005 RMK AO2 T00560028 =
2018-01-21 12:53 METAR KIAG 211753Z 21004KT 2 1/2SM HZ OVC005 04/02 A3007 RMK AO2 SLP196 I6000
                 T00440017 10044 21017 58014 =
2018-01-21 11:53 METAR KIAG 211653Z 21004KT 3SM BR OVC006 04/02 A3009 RMK AO2 SLP204 T00390017 =
2018-01-21 10:53 METAR KIAG 211553Z 22005KT 3SM HZ OVC006 03/01 A3012 RMK AO2 SLP212 T00330006 =
2018-01-21 10:14 METAR KIAG 211514Z 20005KT 3SM HZ BKN005 BKN026 02/M01 A3011 RMK AO2 T00221011 =
2018-01-21 10:08 METAR KIAG 211508Z 20006KT 4SM HZ SCT007 02/M01 A3011 RMK AO2 T00221011 =
2018-01-21 09:53 METAR KIAG 211453Z 19007KT 3SM HZ CLR 02/M01 A3011 RMK AO2 SLP212 I3000
                 T00171011 50006 =
2018-01-21 09:29 METAR KIAG 211429Z 00000KT 3SM BR FEW024 01/M01 A3012 RMK AO2 T00111006 =
2018-01-21 09:22 METAR KIAG 211422Z 00000KT 1 3/4SM BR FEW024 01/M01 A3012 RMK AO2 T00061006 =
2018-01-21 09:11 METAR KIAG 211411Z 00000KT 2SM BR CLR 01/00 A3012 RMK AO2 T00060000 =

Support USWX by starting your Amazon purchase here.